sensor_id;sensor_type;location;lat;lon;timestamp;temperature;humidity
30336;DHT22;17142;47.990;7.846;2023-09-19T05:50:06;17.20;99.90
30336;DHT22;17142;47.990;7.846;2023-09-19T05:52:33;17.20;99.90
30336;DHT22;17142;47.990;7.846;2023-09-19T05:54:58;17.20;99.90
30336;DHT22;17142;47.990;7.846;2023-09-19T05:57:25;17.20;99.90
30336;DHT22;17142;47.990;7.846;2023-09-19T05:59:53;17.20;99.90
30336;DHT22;17142;47.990;7.846;2023-09-19T06:02:19;17.30;99.90
30336;DHT22;17142;47.990;7.846;2023-09-19T06:04:45;17.30;99.90
30336;DHT22;17142;47.990;7.846;2023-09-19T06:07:10;17.30;99.90
30336;DHT22;17142;47.990;7.846;2023-09-19T06:09:39;17.30;99.90
30336;DHT22;17142;47.990;7.846;2023-09-19T06:12:04;17.40;99.90
30336;DHT22;17142;47.990;7.846;2023-09-19T06:14:31;17.40;99.90
30336;DHT22;17142;47.990;7.846;2023-09-19T06:16:58;17.40;99.90
30336;DHT22;17142;47.990;7.846;2023-09-19T06:19:25;17.50;99.90
30336;DHT22;17142;47.990;7.846;2023-09-19T06:21:52;17.50;99.90
30336;DHT22;17142;47.990;7.846;2023-09-19T06:24:19;17.50;99.90
30336;DHT22;17142;47.990;7.846;2023-09-19T06:26:47;17.50;99.90
30336;DHT22;17142;47.990;7.846;2023-09-19T06:29:13;17.50;99.90
30336;DHT22;17142;47.990;7.846;2023-09-19T06:31:39;17.50;99.90
30336;DHT22;17142;47.990;7.846;2023-09-19T06:34:05;17.50;99.90
30336;DHT22;17142;47.990;7.846;2023-09-19T06:36:34;17.60;99.90
30336;DHT22;17142;47.990;7.846;2023-09-19T06:39:00;17.60;99.90
30336;DHT22;17142;47.990;7.846;2023-09-19T06:41:26;17.60;99.90
30336;DHT22;17142;47.990;7.846;2023-09-19T06:43:54;17.60;99.90
30336;DHT22;17142;47.990;7.846;2023-09-19T06:46:19;17.60;99.90
30336;DHT22;17142;47.990;7.846;2023-09-19T06:48:47;17.60;99.90
30336;DHT22;17142;47.990;7.846;2023-09-19T06:51:19;17.60;99.90
30336;DHT22;17142;47.990;7.846;2023-09-19T06:53:45;17.60;99.90
30336;DHT22;17142;47.990;7.846;2023-09-19T06:56:11;17.70;99.90
30336;DHT22;17142;47.990;7.846;2023-09-19T06:58:36;17.90;99.90
30336;DHT22;17142;47.990;7.846;2023-09-19T07:01:02;18.00;99.90
30336;DHT22;17142;47.990;7.846;2023-09-19T07:03:33;18.10;99.90
30336;DHT22;17142;47.990;7.846;2023-09-19T07:05:59;18.20;99.90
30336;DHT22;17142;47.990;7.846;2023-09-19T07:08:27;18.30;99.90
30336;DHT22;17142;47.990;7.846;2023-09-19T07:10:53;18.50;99.90
30336;DHT22;17142;47.990;7.846;2023-09-19T07:13:21;19.20;99.90
30336;DHT22;17142;47.990;7.846;2023-09-19T07:15:47;20.00;99.90
30336;DHT22;17142;47.990;7.846;2023-09-19T07:18:16;20.30;99.90
30336;DHT22;17142;47.990;7.846;2023-09-19T07:20:43;20.40;99.90
30336;DHT22;17142;47.990;7.846;2023-09-19T07:23:21;20.20;99.90
30336;DHT22;17142;47.990;7.846;2023-09-19T07:25:48;19.60;99.90
30336;DHT22;17142;47.990;7.846;2023-09-19T07:28:14;19.50;99.90
30336;DHT22;17142;47.990;7.846;2023-09-19T07:30:40;19.60;99.90
30336;DHT22;17142;47.990;7.846;2023-09-19T07:33:09;19.60;99.90
30336;DHT22;17142;47.990;7.846;2023-09-19T07:35:38;19.50;99.90
30336;DHT22;17142;47.990;7.846;2023-09-19T07:38:09;19.30;99.90
30336;DHT22;17142;47.990;7.846;2023-09-19T07:40:36;19.50;99.90
30336;DHT22;17142;47.990;7.846;2023-09-19T07:43:04;19.50;99.90
30336;DHT22;17142;47.990;7.846;2023-09-19T07:45:33;19.20;99.90
30336;DHT22;17142;47.990;7.846;2023-09-19T07:47:59;19.00;99.90
30336;DHT22;17142;47.990;7.846;2023-09-19T07:50:29;18.80;99.90
30336;DHT22;17142;47.990;7.846;2023-09-19T07:52:55;18.70;99.90
30336;DHT22;17142;47.990;7.846;2023-09-19T07:55:22;18.70;99.90
30336;DHT22;17142;47.990;7.846;2023-09-19T07:57:53;18.90;99.90
30336;DHT22;17142;47.990;7.846;2023-09-19T08:00:21;19.40;99.90
30336;DHT22;17142;47.990;7.846;2023-09-19T08:02:47;20.00;99.90
30336;DHT22;17142;47.990;7.846;2023-09-19T08:05:13;20.40;99.90
30336;DHT22;17142;47.990;7.846;2023-09-19T08:07:45;20.40;99.90
30336;DHT22;17142;47.990;7.846;2023-09-19T08:10:14;20.10;99.90
30336;DHT22;17142;47.990;7.846;2023-09-19T08:12:42;19.70;99.90
30336;DHT22;17142;47.990;7.846;2023-09-19T08:15:20;19.40;99.90
30336;DHT22;17142;47.990;7.846;2023-09-19T08:17:46;19.20;99.90
30336;DHT22;17142;47.990;7.846;2023-09-19T08:20:12;19.10;99.90
30336;DHT22;17142;47.990;7.846;2023-09-19T08:22:48;19.30;99.90
30336;DHT22;17142;47.990;7.846;2023-09-19T08:25:17;19.40;99.90
30336;DHT22;17142;47.990;7.846;2023-09-19T08:27:43;19.60;99.90
30336;DHT22;17142;47.990;7.846;2023-09-19T08:30:16;20.00;99.90
30336;DHT22;17142;47.990;7.846;2023-09-19T08:32:43;20.50;99.90
30336;DHT22;17142;47.990;7.846;2023-09-19T08:35:11;21.00;99.90
30336;DHT22;17142;47.990;7.846;2023-09-19T08:37:39;21.30;99.90
30336;DHT22;17142;47.990;7.846;2023-09-19T08:40:05;21.20;99.90
30336;DHT22;17142;47.990;7.846;2023-09-19T08:42:50;21.10;99.90
30336;DHT22;17142;47.990;7.846;2023-09-19T08:45:16;21.30;99.90
30336;DHT22;17142;47.990;7.846;2023-09-19T08:47:47;21.80;99.90
30336;DHT22;17142;47.990;7.846;2023-09-19T08:50:26;21.80;99.90
30336;DHT22;17142;47.990;7.846;2023-09-19T08:52:56;21.70;99.90
30336;DHT22;17142;47.990;7.846;2023-09-19T08:55:27;21.50;99.90
30336;DHT22;17142;47.990;7.846;2023-09-19T08:58:00;21.70;99.90
30336;DHT22;17142;47.990;7.846;2023-09-19T09:00:29;22.20;99.90
30336;DHT22;17142;47.990;7.846;2023-09-19T09:02:57;22.20;99.90
30336;DHT22;17142;47.990;7.846;2023-09-19T09:05:24;22.20;99.90
30336;DHT22;17142;47.990;7.846;2023-09-19T09:07:52;22.40;99.90
30336;DHT22;17142;47.990;7.846;2023-09-19T09:10:22;22.60;99.90
30336;DHT22;17142;47.990;7.846;2023-09-19T09:12:52;22.50;99.90
30336;DHT22;17142;47.990;7.846;2023-09-19T09:15:23;22.30;99.90
30336;DHT22;17142;47.990;7.846;2023-09-19T09:17:50;22.30;99.90
30336;DHT22;17142;47.990;7.846;2023-09-19T09:20:20;21.90;99.90
30336;DHT22;17142;47.990;7.846;2023-09-19T09:25:19;22.20;99.90
30336;DHT22;17142;47.990;7.846;2023-09-19T09:27:59;22.40;99.90
30336;DHT22;17142;47.990;7.846;2023-09-19T09:30:37;22.40;99.90
30336;DHT22;17142;47.990;7.846;2023-09-19T09:33:13;22.50;99.90
30336;DHT22;17142;47.990;7.846;2023-09-19T09:36:03;22.40;99.90
30336;DHT22;17142;47.990;7.846;2023-09-19T09:41:11;22.70;99.90
30336;DHT22;17142;47.990;7.846;2023-09-19T09:43:42;22.70;99.90
30336;DHT22;17142;47.990;7.846;2023-09-19T09:46:16;22.50;99.90
30336;DHT22;17142;47.990;7.846;2023-09-19T09:51:33;22.40;99.90
30336;DHT22;17142;47.990;7.846;2023-09-19T09:54:18;22.50;99.90
30336;DHT22;17142;47.990;7.846;2023-09-19T09:56:53;22.30;99.90
30336;DHT22;17142;47.990;7.846;2023-09-19T09:59:21;21.90;99.90
30336;DHT22;17142;47.990;7.846;2023-09-19T10:01:49;21.80;99.90
30336;DHT22;17142;47.990;7.846;2023-09-19T10:04:35;21.80;99.90
30336;DHT22;17142;47.990;7.846;2023-09-19T10:07:02;22.00;99.90
30336;DHT22;17142;47.990;7.846;2023-09-19T10:09:45;22.20;99.90
30336;DHT22;17142;47.990;7.846;2023-09-19T10:12:13;22.20;99.90
30336;DHT22;17142;47.990;7.846;2023-09-19T10:14:44;22.00;99.90
30336;DHT22;17142;47.990;7.846;2023-09-19T10:17:17;21.90;99.90
30336;DHT22;17142;47.990;7.846;2023-09-19T10:19:56;22.00;99.90
30336;DHT22;17142;47.990;7.846;2023-09-19T10:22:28;22.00;99.90
30336;DHT22;17142;47.990;7.846;2023-09-19T10:25:00;21.90;99.90
30336;DHT22;17142;47.990;7.846;2023-09-19T10:27:26;22.10;99.90
30336;DHT22;17142;47.990;7.846;2023-09-19T10:29:55;22.50;99.90
30336;DHT22;17142;47.990;7.846;2023-09-19T10:32:28;22.60;99.90
30336;DHT22;17142;47.990;7.846;2023-09-19T10:34:58;22.70;99.90
30336;DHT22;17142;47.990;7.846;2023-09-19T10:37:27;22.80;99.90
30336;DHT22;17142;47.990;7.846;2023-09-19T10:39:56;23.00;99.90
30336;DHT22;17142;47.990;7.846;2023-09-19T10:42:23;23.20;99.90
30336;DHT22;17142;47.990;7.846;2023-09-19T10:44:54;23.00;99.90
30336;DHT22;17142;47.990;7.846;2023-09-19T10:47:21;22.90;99.90
30336;DHT22;17142;47.990;7.846;2023-09-19T10:49:49;23.30;99.90
30336;DHT22;17142;47.990;7.846;2023-09-19T10:52:19;23.60;99.90
30336;DHT22;17142;47.990;7.846;2023-09-19T10:54:50;23.60;99.90
30336;DHT22;17142;47.990;7.846;2023-09-19T10:57:23;23.50;99.90
30336;DHT22;17142;47.990;7.846;2023-09-19T11:00:08;23.30;99.90
30336;DHT22;17142;47.990;7.846;2023-09-19T11:06:03;23.00;99.90
30336;DHT22;17142;47.990;7.846;2023-09-19T11:09:02;22.90;99.90
30336;DHT22;17142;47.990;7.846;2023-09-19T11:14:15;22.60;99.80
30336;DHT22;17142;47.990;7.846;2023-09-19T11:30:40;23.20;99.80
30336;DHT22;17142;47.990;7.846;2023-09-19T11:36:10;23.50;98.50
30336;DHT22;17142;47.990;7.846;2023-09-19T11:49:17;24.10;93.30
30336;DHT22;17142;47.990;7.846;2023-09-19T11:51:50;24.10;93.40
30336;DHT22;17142;47.990;7.846;2023-09-19T11:54:19;24.20;93.90
30336;DHT22;17142;47.990;7.846;2023-09-19T11:56:50;24.30;95.00
30336;DHT22;17142;47.990;7.846;2023-09-19T11:59:20;24.40;94.70
30336;DHT22;17142;47.990;7.846;2023-09-19T12:02:15;24.50;93.40
30336;DHT22;17142;47.990;7.846;2023-09-19T12:04:44;24.60;93.00
30336;DHT22;17142;47.990;7.846;2023-09-19T12:07:15;24.70;90.90
30336;DHT22;17142;47.990;7.846;2023-09-19T12:12:22;24.60;88.60
30336;DHT22;17142;47.990;7.846;2023-09-19T12:14:51;24.40;89.00
30336;DHT22;17142;47.990;7.846;2023-09-19T12:17:17;24.40;86.50
30336;DHT22;17142;47.990;7.846;2023-09-19T12:19:53;24.40;88.50
30336;DHT22;17142;47.990;7.846;2023-09-19T12:22:19;24.50;88.70
30336;DHT22;17142;47.990;7.846;2023-09-19T12:24:48;24.50;87.60
30336;DHT22;17142;47.990;7.846;2023-09-19T12:27:20;24.50;87.70
30336;DHT22;17142;47.990;7.846;2023-09-19T12:29:47;24.40;87.90
30336;DHT22;17142;47.990;7.846;2023-09-19T12:32:16;24.10;85.10
30336;DHT22;17142;47.990;7.846;2023-09-19T12:34:53;24.00;86.20
30336;DHT22;17142;47.990;7.846;2023-09-19T12:37:20;24.20;86.30
30336;DHT22;17142;47.990;7.846;2023-09-19T12:39:53;24.20;86.50
30336;DHT22;17142;47.990;7.846;2023-09-19T12:42:39;24.10;84.40
30336;DHT22;17142;47.990;7.846;2023-09-19T12:45:07;24.00;85.90
30336;DHT22;17142;47.990;7.846;2023-09-19T12:47:37;23.90;88.60
30336;DHT22;17142;47.990;7.846;2023-09-19T12:52:43;23.90;83.80
30336;DHT22;17142;47.990;7.846;2023-09-19T12:55:26;23.50;84.80
30336;DHT22;17142;47.990;7.846;2023-09-19T13:00:21;23.60;89.80
30336;DHT22;17142;47.990;7.846;2023-09-19T13:05:52;23.90;88.10
30336;DHT22;17142;47.990;7.846;2023-09-19T13:11:09;24.10;89.90
30336;DHT22;17142;47.990;7.846;2023-09-19T13:16:10;24.10;87.90
30336;DHT22;17142;47.990;7.846;2023-09-19T13:18:43;24.20;90.30
30336;DHT22;17142;47.990;7.846;2023-09-19T13:21:13;24.30;90.20
30336;DHT22;17142;47.990;7.846;2023-09-19T13:23:55;24.20;88.40
30336;DHT22;17142;47.990;7.846;2023-09-19T13:26:27;24.20;87.30
30336;DHT22;17142;47.990;7.846;2023-09-19T13:28:54;24.40;88.20
30336;DHT22;17142;47.990;7.846;2023-09-19T13:31:19;24.20;87.80
30336;DHT22;17142;47.990;7.846;2023-09-19T13:33:47;23.90;87.80
30336;DHT22;17142;47.990;7.846;2023-09-19T13:36:15;23.80;88.80
30336;DHT22;17142;47.990;7.846;2023-09-19T13:38:41;23.70;89.80
30336;DHT22;17142;47.990;7.846;2023-09-19T13:41:13;23.80;89.00
30336;DHT22;17142;47.990;7.846;2023-09-19T13:43:40;24.00;86.90
30336;DHT22;17142;47.990;7.846;2023-09-19T13:46:06;24.00;86.70
30336;DHT22;17142;47.990;7.846;2023-09-19T13:48:40;24.00;86.10
30336;DHT22;17142;47.990;7.846;2023-09-19T13:51:06;24.00;85.50
30336;DHT22;17142;47.990;7.846;2023-09-19T13:53:33;24.10;85.70
30336;DHT22;17142;47.990;7.846;2023-09-19T13:56:02;24.10;86.20
30336;DHT22;17142;47.990;7.846;2023-09-19T13:58:27;24.20;85.30
30336;DHT22;17142;47.990;7.846;2023-09-19T14:00:57;24.30;86.40
30336;DHT22;17142;47.990;7.846;2023-09-19T14:03:23;24.30;85.30
30336;DHT22;17142;47.990;7.846;2023-09-19T14:05:52;24.40;84.00
30336;DHT22;17142;47.990;7.846;2023-09-19T14:08:20;24.20;80.60
30336;DHT22;17142;47.990;7.846;2023-09-19T14:10:46;24.00;80.90
30336;DHT22;17142;47.990;7.846;2023-09-19T14:13:11;24.00;82.00
30336;DHT22;17142;47.990;7.846;2023-09-19T14:15:40;24.00;82.10
30336;DHT22;17142;47.990;7.846;2023-09-19T14:18:06;24.00;82.50
30336;DHT22;17142;47.990;7.846;2023-09-19T14:20:32;24.10;81.20
30336;DHT22;17142;47.990;7.846;2023-09-19T14:22:57;24.10;81.50
30336;DHT22;17142;47.990;7.846;2023-09-19T14:25:29;24.00;82.00
30336;DHT22;17142;47.990;7.846;2023-09-19T14:28:00;24.10;82.10
30336;DHT22;17142;47.990;7.846;2023-09-19T14:30:26;24.00;80.30
30336;DHT22;17142;47.990;7.846;2023-09-19T14:32:52;23.90;79.50
30336;DHT22;17142;47.990;7.846;2023-09-19T14:35:18;23.80;80.30
30336;DHT22;17142;47.990;7.846;2023-09-19T14:37:43;23.70;78.10
30336;DHT22;17142;47.990;7.846;2023-09-19T14:40:11;23.70;78.90
30336;DHT22;17142;47.990;7.846;2023-09-19T14:42:41;23.70;78.30
30336;DHT22;17142;47.990;7.846;2023-09-19T14:45:11;23.80;77.90
30336;DHT22;17142;47.990;7.846;2023-09-19T14:47:39;23.70;79.40
30336;DHT22;17142;47.990;7.846;2023-09-19T14:50:05;23.60;78.80
30336;DHT22;17142;47.990;7.846;2023-09-19T14:52:35;23.70;80.20
30336;DHT22;17142;47.990;7.846;2023-09-19T14:55:02;23.70;80.20
30336;DHT22;17142;47.990;7.846;2023-09-19T14:57:27;23.60;81.00
30336;DHT22;17142;47.990;7.846;2023-09-19T14:59:53;23.70;81.20
30336;DHT22;17142;47.990;7.846;2023-09-19T15:02:19;23.80;81.40
30336;DHT22;17142;47.990;7.846;2023-09-19T15:04:46;23.60;80.60
30336;DHT22;17142;47.990;7.846;2023-09-19T15:07:15;23.60;81.60
30336;DHT22;17142;47.990;7.846;2023-09-19T15:09:41;23.50;80.30
30336;DHT22;17142;47.990;7.846;2023-09-19T15:12:10;23.60;79.90
30336;DHT22;17142;47.990;7.846;2023-09-19T15:14:40;23.40;78.30
30336;DHT22;17142;47.990;7.846;2023-09-19T15:17:11;23.40;79.60
30336;DHT22;17142;47.990;7.846;2023-09-19T15:19:37;23.50;80.10
30336;DHT22;17142;47.990;7.846;2023-09-19T15:22:03;23.50;79.50
30336;DHT22;17142;47.990;7.846;2023-09-19T15:24:29;23.50;79.50
30336;DHT22;17142;47.990;7.846;2023-09-19T15:26:55;23.30;80.10
30336;DHT22;17142;47.990;7.846;2023-09-19T15:29:25;23.30;79.60
30336;DHT22;17142;47.990;7.846;2023-09-19T15:31:54;23.30;80.60
30336;DHT22;17142;47.990;7.846;2023-09-19T15:34:22;23.40;81.20
30336;DHT22;17142;47.990;7.846;2023-09-19T15:36:48;23.40;80.50
30336;DHT22;17142;47.990;7.846;2023-09-19T15:39:15;23.30;80.00
30336;DHT22;17142;47.990;7.846;2023-09-19T15:41:45;23.10;80.00
30336;DHT22;17142;47.990;7.846;2023-09-19T15:44:13;23.10;80.30
30336;DHT22;17142;47.990;7.846;2023-09-19T15:46:41;23.00;81.60
30336;DHT22;17142;47.990;7.846;2023-09-19T15:49:10;23.10;81.80
30336;DHT22;17142;47.990;7.846;2023-09-19T15:51:36;23.00;82.70
30336;DHT22;17142;47.990;7.846;2023-09-19T15:54:09;23.00;82.70
30336;DHT22;17142;47.990;7.846;2023-09-19T15:56:35;23.00;82.90
30336;DHT22;17142;47.990;7.846;2023-09-19T15:59:00;23.00;83.90
30336;DHT22;17142;47.990;7.846;2023-09-19T16:01:28;23.00;84.20
30336;DHT22;17142;47.990;7.846;2023-09-19T16:03:54;22.90;84.70
30336;DHT22;17142;47.990;7.846;2023-09-19T16:06:28;22.90;84.10
30336;DHT22;17142;47.990;7.846;2023-09-19T16:08:56;22.90;84.70
30336;DHT22;17142;47.990;7.846;2023-09-19T16:11:22;22.80;86.00
30336;DHT22;17142;47.990;7.846;2023-09-19T16:13:49;22.80;85.90
30336;DHT22;17142;47.990;7.846;2023-09-19T16:16:16;22.80;85.10
30336;DHT22;17142;47.990;7.846;2023-09-19T16:18:55;22.70;85.10
30336;DHT22;17142;47.990;7.846;2023-09-19T16:21:26;22.70;86.30
30336;DHT22;17142;47.990;7.846;2023-09-19T16:23:55;22.60;86.50
30336;DHT22;17142;47.990;7.846;2023-09-19T16:26:22;22.50;87.00
30336;DHT22;17142;47.990;7.846;2023-09-19T16:28:54;22.40;86.60
30336;DHT22;17142;47.990;7.846;2023-09-19T16:31:22;22.30;87.10
30336;DHT22;17142;47.990;7.846;2023-09-19T16:33:48;22.30;88.00
30336;DHT22;17142;47.990;7.846;2023-09-19T16:36:17;22.30;88.70
30336;DHT22;17142;47.990;7.846;2023-09-19T16:38:44;22.20;88.50
30336;DHT22;17142;47.990;7.846;2023-09-19T16:41:11;22.20;89.20
30336;DHT22;17142;47.990;7.846;2023-09-19T16:43:40;22.10;89.00
30336;DHT22;17142;47.990;7.846;2023-09-19T16:46:07;22.10;88.80
30336;DHT22;17142;47.990;7.846;2023-09-19T16:48:38;22.00;89.60
30336;DHT22;17142;47.990;7.846;2023-09-19T16:51:07;21.90;90.20
30336;DHT22;17142;47.990;7.846;2023-09-19T16:53:37;21.80;90.70
30336;DHT22;17142;47.990;7.846;2023-09-19T16:56:12;21.80;90.90
30336;DHT22;17142;47.990;7.846;2023-09-19T16:58:44;21.70;90.80
30336;DHT22;17142;47.990;7.846;2023-09-19T17:01:12;21.70;90.90
30336;DHT22;17142;47.990;7.846;2023-09-19T17:03:39;21.60;90.80
30336;DHT22;17142;47.990;7.846;2023-09-19T17:06:08;21.50;91.00
30336;DHT22;17142;47.990;7.846;2023-09-19T17:08:36;21.50;91.30
30336;DHT22;17142;47.990;7.846;2023-09-19T17:11:06;21.40;91.50
30336;DHT22;17142;47.990;7.846;2023-09-19T17:13:34;21.30;91.70
30336;DHT22;17142;47.990;7.846;2023-09-19T17:16:06;21.20;91.70
30336;DHT22;17142;47.990;7.846;2023-09-19T17:18:33;21.10;92.00
30336;DHT22;17142;47.990;7.846;2023-09-19T17:21:02;21.00;92.10
30336;DHT22;17142;47.990;7.846;2023-09-19T17:23:32;20.90;92.50
30336;DHT22;17142;47.990;7.846;2023-09-19T17:26:06;20.90;92.70
30336;DHT22;17142;47.990;7.846;2023-09-19T17:28:34;20.70;93.00
30336;DHT22;17142;47.990;7.846;2023-09-19T17:31:09;20.60;93.50
30336;DHT22;17142;47.990;7.846;2023-09-19T17:33:38;20.50;93.80
30336;DHT22;17142;47.990;7.846;2023-09-19T17:38:38;20.30;94.70
30336;DHT22;17142;47.990;7.846;2023-09-19T17:41:04;20.20;94.80
30336;DHT22;17142;47.990;7.846;2023-09-19T17:43:37;20.00;95.60
30336;DHT22;17142;47.990;7.846;2023-09-19T17:46:11;20.00;95.60
30336;DHT22;17142;47.990;7.846;2023-09-19T17:48:41;19.90;95.90
30336;DHT22;17142;47.990;7.846;2023-09-19T17:51:09;19.80;96.30
30336;DHT22;17142;47.990;7.846;2023-09-19T17:53:40;19.80;96.30
30336;DHT22;17142;47.990;7.846;2023-09-19T17:56:09;19.70;96.60
30336;DHT22;17142;47.990;7.846;2023-09-19T17:58:35;19.60;97.10
30336;DHT22;17142;47.990;7.846;2023-09-19T18:01:11;19.50;97.60
30336;DHT22;17142;47.990;7.846;2023-09-19T18:03:38;19.40;98.00
30336;DHT22;17142;47.990;7.846;2023-09-19T18:06:04;19.20;99.20
30336;DHT22;17142;47.990;7.846;2023-09-19T18:08:32;19.00;99.90
30336;DHT22;17142;47.990;7.846;2023-09-19T18:10:59;18.70;99.90
30336;DHT22;17142;47.990;7.846;2023-09-19T18:13:26;18.60;99.90
30336;DHT22;17142;47.990;7.846;2023-09-19T18:15:51;18.30;99.90
30336;DHT22;17142;47.990;7.846;2023-09-19T18:18:17;18.20;99.90
30336;DHT22;17142;47.990;7.846;2023-09-19T18:20:43;18.00;99.90
30336;DHT22;17142;47.990;7.846;2023-09-19T18:23:14;17.90;99.90
30336;DHT22;17142;47.990;7.846;2023-09-19T18:25:43;17.80;99.90
30336;DHT22;17142;47.990;7.846;2023-09-19T18:28:09;17.70;99.90
30336;DHT22;17142;47.990;7.846;2023-09-19T18:30:36;17.60;99.90
30336;DHT22;17142;47.990;7.846;2023-09-19T18:33:04;17.60;99.90
30336;DHT22;17142;47.990;7.846;2023-09-19T18:35:34;17.40;99.90
30336;DHT22;17142;47.990;7.846;2023-09-19T18:38:00;17.30;99.90
30336;DHT22;17142;47.990;7.846;2023-09-19T18:40:28;17.10;99.90
30336;DHT22;17142;47.990;7.846;2023-09-19T18:42:55;17.10;99.90
30336;DHT22;17142;47.990;7.846;2023-09-19T18:45:23;17.10;99.90
30336;DHT22;17142;47.990;7.846;2023-09-19T18:47:54;17.10;99.90
30336;DHT22;17142;47.990;7.846;2023-09-19T18:50:22;17.00;99.90
30336;DHT22;17142;47.990;7.846;2023-09-19T18:52:49;16.90;99.90
30336;DHT22;17142;47.990;7.846;2023-09-19T18:55:16;16.80;99.90
30336;DHT22;17142;47.990;7.846;2023-09-19T18:57:45;16.70;99.90
30336;DHT22;17142;47.990;7.846;2023-09-19T19:00:13;16.70;99.90
30336;DHT22;17142;47.990;7.846;2023-09-19T19:02:42;16.70;99.90
30336;DHT22;17142;47.990;7.846;2023-09-19T19:05:09;16.80;99.90
30336;DHT22;17142;47.990;7.846;2023-09-19T19:07:36;16.70;99.90
30336;DHT22;17142;47.990;7.846;2023-09-19T19:10:03;16.70;99.90
30336;DHT22;17142;47.990;7.846;2023-09-19T19:12:34;16.70;99.90
30336;DHT22;17142;47.990;7.846;2023-09-19T19:15:03;16.60;99.90
30336;DHT22;17142;47.990;7.846;2023-09-19T19:17:29;16.50;99.90
30336;DHT22;17142;47.990;7.846;2023-09-19T19:19:58;16.50;99.90
30336;DHT22;17142;47.990;7.846;2023-09-19T19:22:23;16.40;99.90
30336;DHT22;17142;47.990;7.846;2023-09-19T19:24:50;16.40;99.90
30336;DHT22;17142;47.990;7.846;2023-09-19T19:27:17;16.40;99.90
30336;DHT22;17142;47.990;7.846;2023-09-19T19:29:44;16.40;99.90
30336;DHT22;17142;47.990;7.846;2023-09-19T19:32:14;16.40;99.90
30336;DHT22;17142;47.990;7.846;2023-09-19T19:34:40;16.30;99.90
30336;DHT22;17142;47.990;7.846;2023-09-19T19:37:08;16.30;99.90
30336;DHT22;17142;47.990;7.846;2023-09-19T19:39:38;16.30;99.90
30336;DHT22;17142;47.990;7.846;2023-09-19T19:42:04;16.30;99.90
30336;DHT22;17142;47.990;7.846;2023-09-19T19:44:30;16.30;99.90
30336;DHT22;17142;47.990;7.846;2023-09-19T19:46:56;16.20;99.90
30336;DHT22;17142;47.990;7.846;2023-09-19T19:49:24;16.30;99.90
30336;DHT22;17142;47.990;7.846;2023-09-19T19:51:49;16.20;99.90
30336;DHT22;17142;47.990;7.846;2023-09-19T19:54:15;16.10;99.90
30336;DHT22;17142;47.990;7.846;2023-09-19T19:56:41;16.10;99.90
30336;DHT22;17142;47.990;7.846;2023-09-19T19:59:08;16.00;99.90
30336;DHT22;17142;47.990;7.846;2023-09-19T20:01:38;16.00;99.90
30336;DHT22;17142;47.990;7.846;2023-09-19T20:04:04;16.00;99.90
30336;DHT22;17142;47.990;7.846;2023-09-19T20:06:30;16.00;99.90
30336;DHT22;17142;47.990;7.846;2023-09-19T20:08:56;16.00;99.90
30336;DHT22;17142;47.990;7.846;2023-09-19T20:11:24;16.00;99.90
30336;DHT22;17142;47.990;7.846;2023-09-19T20:13:55;15.90;99.90
30336;DHT22;17142;47.990;7.846;2023-09-19T20:16:27;16.00;99.90
30336;DHT22;17142;47.990;7.846;2023-09-19T20:19:01;15.90;99.90
30336;DHT22;17142;47.990;7.846;2023-09-19T20:21:27;15.80;99.90
30336;DHT22;17142;47.990;7.846;2023-09-19T20:23:54;15.70;99.90
30336;DHT22;17142;47.990;7.846;2023-09-19T20:26:20;15.70;99.90
30336;DHT22;17142;47.990;7.846;2023-09-19T20:28:45;15.60;99.90
30336;DHT22;17142;47.990;7.846;2023-09-19T20:31:13;15.50;99.90
30336;DHT22;17142;47.990;7.846;2023-09-19T20:33:43;15.50;99.90
30336;DHT22;17142;47.990;7.846;2023-09-19T20:36:11;15.50;99.90
30336;DHT22;17142;47.990;7.846;2023-09-19T20:38:42;15.50;99.90
30336;DHT22;17142;47.990;7.846;2023-09-19T20:41:08;15.50;99.90
30336;DHT22;17142;47.990;7.846;2023-09-19T20:43:34;15.40;99.90
30336;DHT22;17142;47.990;7.846;2023-09-19T20:46:05;15.40;99.90
30336;DHT22;17142;47.990;7.846;2023-09-19T20:48:34;15.40;99.90
30336;DHT22;17142;47.990;7.846;2023-09-19T20:51:09;15.40;99.90
30336;DHT22;17142;47.990;7.846;2023-09-19T20:53:39;15.40;99.90
30336;DHT22;17142;47.990;7.846;2023-09-19T20:56:06;15.40;99.90
30336;DHT22;17142;47.990;7.846;2023-09-19T20:58:36;15.40;99.90
30336;DHT22;17142;47.990;7.846;2023-09-19T21:01:07;15.30;99.90
30336;DHT22;17142;47.990;7.846;2023-09-19T21:03:36;15.20;99.90
30336;DHT22;17142;47.990;7.846;2023-09-19T21:06:08;15.20;99.90
30336;DHT22;17142;47.990;7.846;2023-09-19T21:08:39;15.10;99.90
30336;DHT22;17142;47.990;7.846;2023-09-19T21:11:17;15.00;99.90
30336;DHT22;17142;47.990;7.846;2023-09-19T21:13:46;14.90;99.90
30336;DHT22;17142;47.990;7.846;2023-09-19T21:16:15;14.90;99.90
